CheckWX is a tool to help pilots better visualize weather data.  It is not intended as a substitute for an official pre-flight weather briefing.

12:47:30 UTC

CYBR TAF
Brandon Municipal Airport
Brandon, Canada
TAF CYBR 191149Z 1912/1924 09004KT 1SM BR SKC BECMG 1912/1914 P6SM NSW SKC FM191400 09008KT P6SM SKC FM192100 11012G22KT P6SM FEW040 RMK NXT FCST BY 191800Z

Sep-19@
12:00 UTC

Sep-19 @ 12:00 UTC

Sep-20@
00:00 UTC

Sep-20 @ 00:00 UTC

TAF CYBR 191149Z 1912/1924 09004KT 1SM BR SKC
Wind
  • 090° at 4 KTS
Conditions
Mist
Cloud Levels
  • Clear skies

Sep-19@
12:00 UTC

Sep-19 @ 12:00 UTC

Sep-19@
14:00 UTC

Sep-19 @ 14:00 UTC

BECMG 1912/1914 P6SM NSW SKC

Becoming

Becoming Conditions expected by Thu, Sep 19, 2019 @ 14:00 UTC

Wind
  • 090° at 4 KTS
Conditions
No significant weather
Cloud Levels
  • Clear skies

Sep-19@
14:00 UTC

Sep-19 @ 14:00 UTC

Sep-19@
21:00 UTC

Sep-19 @ 21:00 UTC

FM191400 09008KT P6SM SKC

From

From Standard forecast or significant change

Wind
  • 090° at 8 KTS
Cloud Levels
  • Clear skies

Sep-19@
21:00 UTC

Sep-19 @ 21:00 UTC

Sep-20@
00:00 UTC

Sep-20 @ 00:00 UTC

FM192100 11012G22KT P6SM FEW040 RMK NXT FCST BY 191800Z

From

From Standard forecast or significant change

Wind
  • 110° at 12 KTS
  • {Gusting to 22 KTS
Cloud Levels
  • Few at 4,000' AGL